createdAt,value
2023-02-06T00:03:26.666Z,3594
2023-02-06T00:13:26.662Z,3594
2023-02-06T00:23:26.632Z,3594
2023-02-06T00:33:27.054Z,3589
2023-02-06T00:43:27.060Z,3587
2023-02-06T00:53:26.625Z,3589
2023-02-06T01:03:26.619Z,3589
2023-02-06T01:13:26.613Z,3594
2023-02-06T01:23:26.574Z,3594
2023-02-06T01:33:26.605Z,3589
2023-02-06T01:43:26.572Z,3592
2023-02-06T01:53:26.547Z,3592
2023-02-06T02:03:26.580Z,3594
2023-02-06T02:13:26.966Z,3587
2023-02-06T02:23:26.566Z,3589
2023-02-06T02:33:26.519Z,3592
2023-02-06T02:43:26.519Z,3592
2023-02-06T02:53:26.511Z,3594
2023-02-06T03:03:26.503Z,3594
2023-02-06T03:13:26.537Z,3594
2023-02-06T03:23:26.513Z,3587
2023-02-06T03:33:26.494Z,3592
2023-02-06T03:43:26.482Z,3594
2023-02-06T03:53:26.887Z,3587
2023-02-06T04:03:26.475Z,3589
2023-02-06T04:13:26.463Z,3589
2023-02-06T04:23:26.469Z,3592
2023-02-06T04:33:26.874Z,3587
2023-02-06T04:43:26.436Z,3589
2023-02-06T04:53:26.851Z,3587
2023-02-06T05:03:26.434Z,3587
2023-02-06T05:13:26.419Z,3589
2023-02-06T05:23:26.389Z,3592
2023-02-06T05:33:26.809Z,3587
2023-02-06T05:43:26.385Z,3587
2023-02-06T05:53:26.380Z,3589
2023-02-06T06:03:26.398Z,3589
2023-02-06T06:13:26.371Z,3594
2023-02-06T06:23:26.364Z,3592
2023-02-06T06:33:26.788Z,3587
2023-02-06T06:43:26.786Z,3584
2023-02-06T06:53:26.335Z,3584
2023-02-06T07:03:26.337Z,3587
2023-02-06T07:13:26.330Z,3589
2023-02-06T07:23:26.327Z,3592
2023-02-06T07:33:26.319Z,3589
2023-02-06T07:43:26.335Z,3584
2023-02-06T07:53:26.716Z,3581
2023-02-06T08:03:26.300Z,3584
2023-02-06T08:13:26.302Z,3587
2023-02-06T08:23:26.282Z,3589
2023-02-06T08:33:26.283Z,3589
2023-02-06T08:43:26.253Z,3594
2023-02-06T08:53:26.241Z,3594
2023-02-06T09:03:26.281Z,3594
2023-02-06T09:13:26.241Z,3594
2023-02-06T09:23:26.233Z,3594
2023-02-06T09:33:26.222Z,3597
2023-02-06T09:43:26.208Z,3594
2023-02-06T09:53:26.200Z,3594
2023-02-06T10:03:26.204Z,3597
2023-02-06T10:13:26.194Z,3597
2023-02-06T10:23:26.179Z,3597
2023-02-06T10:33:26.319Z,3597
2023-02-06T10:43:26.164Z,3597
2023-02-06T10:53:26.169Z,3600
2023-02-06T11:03:26.156Z,3600
2023-02-06T11:13:26.144Z,3600
2023-02-06T11:23:26.129Z,3602
2023-02-06T11:33:26.109Z,3602
2023-02-06T11:43:26.099Z,3605
2023-02-06T11:53:26.070Z,3605
2023-02-06T12:03:26.093Z,3605
2023-02-06T12:13:26.504Z,3600
2023-02-06T12:23:26.050Z,3600
2023-02-06T12:33:26.038Z,3600
2023-02-06T12:43:26.013Z,3600
2023-02-06T12:53:26.009Z,3600
2023-02-06T13:03:25.999Z,3600
2023-02-06T13:13:26.014Z,3600
2023-02-06T13:23:25.988Z,3600
2023-02-06T13:33:25.961Z,3600
2023-02-06T13:43:25.961Z,3600
2023-02-06T13:53:25.958Z,3600
2023-02-06T14:03:26.386Z,3594
2023-02-06T14:13:25.950Z,3594
2023-02-06T14:23:25.926Z,3597
2023-02-06T14:33:25.921Z,3597
2023-02-06T14:43:25.913Z,3597
2023-02-06T14:53:25.903Z,3600
2023-02-06T15:03:25.917Z,3600
2023-02-06T15:13:25.880Z,3600
2023-02-06T15:23:25.857Z,3600
2023-02-06T15:33:26.282Z,3592
2023-02-06T15:43:25.884Z,3594
2023-02-06T15:53:25.831Z,3594
2023-02-06T16:03:25.831Z,3594
2023-02-06T16:13:26.241Z,3589
2023-02-06T16:23:33.744Z,3574
2023-02-06T16:33:25.821Z,3579
2023-02-06T16:43:26.213Z,3579
2023-02-06T16:53:25.801Z,3584
2023-02-06T17:03:25.772Z,3589
2023-02-06T17:13:25.764Z,3589
2023-02-06T17:23:25.778Z,3592
2023-02-06T17:33:25.748Z,3594
2023-02-06T17:43:25.764Z,3594
2023-02-06T17:53:25.725Z,3594
2023-02-06T18:03:26.151Z,3589
2023-02-06T18:13:25.758Z,3589
2023-02-06T18:23:25.724Z,3589
2023-02-06T18:33:25.688Z,3594
2023-02-06T18:43:26.127Z,3589
2023-02-06T18:53:25.675Z,3589
2023-02-06T19:03:25.666Z,3592
2023-02-06T19:13:25.669Z,3592
2023-02-06T19:23:25.653Z,3594
2023-02-06T19:33:26.073Z,3587
2023-02-06T19:43:25.644Z,3589
2023-02-06T19:53:25.638Z,3589
2023-02-06T20:03:26.074Z,3584
2023-02-06T20:13:27.956Z,3571
2023-02-06T20:23:25.623Z,3579
2023-02-06T20:33:25.589Z,3584
2023-02-06T20:43:26.409Z,3587
2023-02-06T20:53:25.932Z,3589
2023-02-06T21:03:25.665Z,3589
2023-02-06T21:13:25.595Z,3592
2023-02-06T21:23:25.572Z,3592
2023-02-06T21:33:25.541Z,3594
2023-02-06T21:43:25.539Z,3594
2023-02-06T21:53:25.540Z,3594
2023-02-06T22:03:25.525Z,3594
2023-02-06T22:13:25.508Z,3594
2023-02-06T22:23:25.508Z,3594
2023-02-06T22:33:25.517Z,3594
2023-02-06T22:43:25.588Z,3594
2023-02-06T23:03:25.467Z,3579
2023-02-06T23:13:25.466Z,3584
2023-02-06T23:23:25.880Z,3581
2023-02-06T23:33:25.889Z,3579
2023-02-06T23:43:25.442Z,3584
2023-02-06T23:53:25.423Z,3579
